Time;durP1;ratioP1;P1;durP2;ratioP2;P2;SDS_P1;SDS_P2;PMS_P1;PMS_P2;Temp;Humidity;BMP_temperature;BMP_pressure;BME280_temperature;BME280_humidity;BME280_pressure;Samples;Min_cycle;Max_cycle;Signal;HPM_P1;HPM_P2
2023/09/21 00:00:49;;;;;;;;;;;;;;;16.95;99.82;95403.47;5136043;27;1083;-55
2023/09/21 00:03:15;;;;;;;;;;;;;;;16.94;99.32;95396.41;5136431;27;1006;-55
2023/09/21 00:05:45;;;;;;;;;;;;;;;17.10;98.62;95398.00;5136630;27;1913;-55
2023/09/21 00:08:12;;;;;;;;;;;;;;;17.12;97.92;95399.47;5135233;27;885;-55
2023/09/21 00:10:39;;;;;;;;;;;;;;;17.02;98.31;95407.09;5136567;27;1960;-55
2023/09/21 00:13:05;;;;;;;;;;;;;;;16.95;98.62;95409.72;5135208;27;1087;-55
2023/09/21 00:15:31;;;;;;;;;;;;;;;16.96;98.44;95415.97;5136664;27;999;-55
2023/09/21 00:17:58;;;;;;;;;;;;;;;16.83;98.77;95413.97;5136523;27;988;-55
2023/09/21 00:20:32;;;;;;;;;;;;;;;16.60;99.29;95408.75;5136546;27;975;-55
2023/09/21 00:22:59;;;;;;;;;;;;;;;16.39;100.00;95406.88;5136328;27;1055;-55
2023/09/21 00:25:28;;;;;;;;;;;;;;;16.45;100.00;95400.69;5136350;27;2004;-55
2023/09/21 00:27:54;;;;;;;;;;;;;;;16.62;100.00;95412.09;5136200;27;1043;-55
2023/09/21 00:30:20;;;;;;;;;;;;;;;16.61;99.58;95410.41;5131313;27;2499;-55
2023/09/21 00:32:47;;;;;;;;;;;;;;;16.63;99.94;95412.91;5115513;28;1067;-55
2023/09/21 00:35:15;;;;;;;;;;;;;;;16.49;99.73;95415.47;5115463;28;988;-55
2023/09/21 00:37:42;;;;;;;;;;;;;;;16.35;99.83;95411.81;5115652;28;1067;-55
2023/09/21 00:40:17;;;;;;;;;;;;;;;16.32;99.50;95406.78;5115605;28;1039;-55
2023/09/21 00:42:44;;;;;;;;;;;;;;;16.32;99.41;95409.47;5115340;28;1885;-56
2023/09/21 00:45:10;;;;;;;;;;;;;;;16.46;98.64;95409.63;5115460;28;1904;-55
2023/09/21 00:47:39;;;;;;;;;;;;;;;16.48;98.64;95405.69;5115543;28;992;-55
2023/09/21 00:50:08;;;;;;;;;;;;;;;16.50;98.05;95409.03;5115129;28;968;-55
2023/09/21 00:52:35;;;;;;;;;;;;;;;16.35;98.59;95409.09;5114983;28;1106;-55
2023/09/21 00:55:05;;;;;;;;;;;;;;;16.18;99.14;95404.94;5115307;28;1028;-55
2023/09/21 00:57:32;;;;;;;;;;;;;;;16.12;100.00;95406.53;5115527;28;973;-55
2023/09/21 00:59:59;;;;;;;;;;;;;;;16.11;100.00;95412.16;5135017;27;1205;-55
2023/09/21 01:02:25;;;;;;;;;;;;;;;16.04;100.00;95406.66;5135685;27;1051;-55
2023/09/21 01:04:52;;;;;;;;;;;;;;;16.17;100.00;95401.41;5135574;27;2003;-55
2023/09/21 01:07:22;;;;;;;;;;;;;;;16.27;99.52;95403.81;5135593;27;1079;-55
2023/09/21 01:09:49;;;;;;;;;;;;;;;16.35;98.29;95397.47;5134464;27;960;-55
2023/09/21 01:12:15;;;;;;;;;;;;;;;16.32;99.12;95403.25;5135293;27;1122;-55
2023/09/21 01:14:41;;;;;;;;;;;;;;;16.32;99.64;95393.28;5135209;27;1036;-55
2023/09/21 01:17:07;;;;;;;;;;;;;;;16.25;99.35;95399.63;5135179;27;1020;-55
2023/09/21 01:19:33;;;;;;;;;;;;;;;16.16;99.62;95397.06;5135369;27;977;-55
2023/09/21 01:22:06;;;;;;;;;;;;;;;16.13;100.00;95392.03;5135372;27;980;-55
2023/09/21 01:24:32;;;;;;;;;;;;;;;16.23;99.39;95388.19;5135129;27;1979;-55
2023/09/21 01:26:58;;;;;;;;;;;;;;;16.26;98.78;95388.66;5135156;27;953;-55
2023/09/21 01:29:24;;;;;;;;;;;;;;;16.32;98.80;95390.59;5134974;27;1068;-55
2023/09/21 01:31:50;;;;;;;;;;;;;;;16.30;98.43;95383.72;5134914;27;1003;-56
2023/09/21 01:34:16;;;;;;;;;;;;;;;16.15;98.85;95383.75;5135085;27;1060;-55
2023/09/21 01:36:43;;;;;;;;;;;;;;;16.11;99.53;95385.16;5133664;27;989;-55
2023/09/21 01:39:09;;;;;;;;;;;;;;;16.04;99.74;95387.78;5134941;27;1019;-55
2023/09/21 01:41:35;;;;;;;;;;;;;;;16.04;100.00;95381.56;5134839;27;1111;-56
2023/09/21 01:44:01;;;;;;;;;;;;;;;16.08;99.83;95382.84;5134576;27;1071;-55
2023/09/21 01:46:28;;;;;;;;;;;;;;;16.15;99.17;95384.59;5134552;27;1929;-55
2023/09/21 01:48:54;;;;;;;;;;;;;;;16.25;97.83;95384.28;5134933;27;969;-55
2023/09/21 01:51:20;;;;;;;;;;;;;;;16.30;97.33;95381.84;5133396;27;2484;-55
2023/09/21 01:53:47;;;;;;;;;;;;;;;16.31;97.52;95383.50;5134575;27;1092;-55
2023/09/21 01:56:14;;;;;;;;;;;;;;;16.06;98.15;95377.63;5134456;27;1872;-55
2023/09/21 01:58:40;;;;;;;;;;;;;;;16.10;98.58;95386.19;5134736;27;1235;-55
2023/09/21 02:01:06;;;;;;;;;;;;;;;15.96;99.06;95379.81;5133166;27;1858;-55
2023/09/21 02:03:32;;;;;;;;;;;;;;;15.97;99.04;95386.84;5134636;27;999;-55
2023/09/21 02:06:02;;;;;;;;;;;;;;;16.04;98.54;95382.38;5134578;27;1914;-55
2023/09/21 02:08:28;;;;;;;;;;;;;;;16.04;98.58;95382.38;5134635;27;941;-56
2023/09/21 02:10:54;;;;;;;;;;;;;;;16.03;98.67;95388.81;5134708;27;1051;-56
2023/09/21 02:13:20;;;;;;;;;;;;;;;15.90;98.75;95385.97;5134364;27;1010;-55
2023/09/21 02:15:51;;;;;;;;;;;;;;;15.88;98.96;95383.44;5134282;27;1885;-55
2023/09/21 02:18:17;;;;;;;;;;;;;;;15.97;97.89;95381.47;5134266;27;1043;-55
2023/09/21 02:20:44;;;;;;;;;;;;;;;15.94;98.03;95381.84;5134296;27;1048;-55
2023/09/21 02:23:11;;;;;;;;;;;;;;;15.86;98.70;95385.50;5134467;27;1166;-55
2023/09/21 02:25:40;;;;;;;;;;;;;;;15.84;98.71;95382.16;5135123;27;2473;-55
2023/09/21 02:28:11;;;;;;;;;;;;;;;15.79;99.05;95382.69;5138515;27;1856;-55
2023/09/21 02:30:39;;;;;;;;;;;;;;;15.68;99.39;95377.75;5138804;27;948;-55
2023/09/21 02:33:05;;;;;;;;;;;;;;;15.66;99.74;95384.38;5138665;27;965;-55
2023/09/21 02:35:33;;;;;;;;;;;;;;;15.67;99.56;95383.31;5123278;27;2468;-55
2023/09/21 02:37:59;;;;;;;;;;;;;;;15.56;99.37;95379.25;5118029;28;1064;-54
2023/09/21 02:40:25;;;;;;;;;;;;;;;15.46;100.00;95378.69;5117712;28;957;-55
2023/09/21 02:42:52;;;;;;;;;;;;;;;15.41;99.97;95380.09;5117713;28;1344;-56
2023/09/21 02:45:19;;;;;;;;;;;;;;;15.37;99.91;95386.03;5117513;28;1886;-55
2023/09/21 02:47:46;;;;;;;;;;;;;;;15.36;100.00;95385.19;5117791;28;976;-54
2023/09/21 02:50:20;;;;;;;;;;;;;;;15.43;100.00;95388.00;5117604;28;1020;-55
2023/09/21 02:52:51;;;;;;;;;;;;;;;15.43;99.74;95380.72;5117696;28;1008;-55
2023/09/21 02:55:20;;;;;;;;;;;;;;;15.45;99.73;95383.25;5117336;28;1068;-55
2023/09/21 02:57:55;;;;;;;;;;;;;;;15.41;99.98;95379.25;5118883;27;1165;-55
2023/09/21 03:00:22;;;;;;;;;;;;;;;15.48;99.53;95385.59;5138043;27;1035;-55
2023/09/21 03:02:49;;;;;;;;;;;;;;;15.51;99.64;95385.19;5137841;27;1027;-55
2023/09/21 03:05:18;;;;;;;;;;;;;;;15.55;99.27;95389.19;5137916;27;1906;-55
2023/09/21 03:07:44;;;;;;;;;;;;;;;15.51;99.13;95384.38;5138066;27;1055;-55
2023/09/21 03:10:11;;;;;;;;;;;;;;;15.50;99.33;95385.38;5137546;27;1040;-55
2023/09/21 03:12:37;;;;;;;;;;;;;;;15.62;98.37;95387.41;5137963;27;1036;-55
2023/09/21 03:15:06;;;;;;;;;;;;;;;15.51;98.60;95381.66;5137672;27;1043;-56
2023/09/21 03:17:34;;;;;;;;;;;;;;;15.35;99.53;95378.13;5137492;27;1008;-56
2023/09/21 03:20:11;;;;;;;;;;;;;;;15.32;99.64;95378.50;5137669;27;1282;-55
2023/09/21 03:22:38;;;;;;;;;;;;;;;15.33;99.56;95372.09;5137534;27;1040;-56
2023/09/21 03:25:05;;;;;;;;;;;;;;;15.31;99.39;95365.22;5137358;27;1992;-56
2023/09/21 03:27:31;;;;;;;;;;;;;;;15.33;99.68;95372.09;5137618;27;1082;-56
2023/09/21 03:29:57;;;;;;;;;;;;;;;15.25;99.64;95372.16;5137398;27;1094;-56
2023/09/21 03:32:25;;;;;;;;;;;;;;;15.19;100.00;95372.91;5137274;27;1032;-56
2023/09/21 03:34:51;;;;;;;;;;;;;;;15.26;99.89;95373.84;5137261;27;961;-56
2023/09/21 03:37:19;;;;;;;;;;;;;;;15.24;100.00;95370.50;5136926;27;1059;-56
2023/09/21 03:39:45;;;;;;;;;;;;;;;15.25;99.77;95366.78;5137393;27;999;-56
2023/09/21 03:42:11;;;;;;;;;;;;;;;15.39;98.95;95365.97;5137297;27;1095;-56
2023/09/21 03:44:37;;;;;;;;;;;;;;;15.42;99.09;95362.06;5136860;27;1979;-56
2023/09/21 03:47:04;;;;;;;;;;;;;;;15.36;98.83;95362.81;5137311;27;1067;-56
2023/09/21 03:49:34;;;;;;;;;;;;;;;15.30;98.75;95367.06;5136923;27;1019;-55
2023/09/21 03:52:00;;;;;;;;;;;;;;;15.32;99.10;95367.72;5136791;27;1055;-55
2023/09/21 03:54:26;;;;;;;;;;;;;;;15.31;99.26;95360.69;5137026;27;965;-55
2023/09/21 03:56:52;;;;;;;;;;;;;;;15.24;98.70;95367.81;5137025;27;964;-55
2023/09/21 03:59:18;;;;;;;;;;;;;;;15.06;98.56;95367.31;5136921;27;1247;-55
2023/09/21 04:01:46;;;;;;;;;;;;;;;14.96;99.10;95373.81;5136712;27;1035;-55
2023/09/21 04:04:17;;;;;;;;;;;;;;;14.97;99.38;95370.09;5136589;27;1035;-55
2023/09/21 04:06:44;;;;;;;;;;;;;;;15.01;99.56;95371.41;5124559;27;2526;-55
2023/09/21 04:09:10;;;;;;;;;;;;;;;14.94;99.83;95375.84;5116265;28;1023;-55
2023/09/21 04:11:36;;;;;;;;;;;;;;;15.05;99.90;95392.59;5115975;28;1043;-54
2023/09/21 04:14:03;;;;;;;;;;;;;;;15.15;100.00;95393.16;5115921;28;1059;-55
2023/09/21 04:16:29;;;;;;;;;;;;;;;15.29;98.78;95395.06;5115758;28;1032;-55
2023/09/21 04:18:55;;;;;;;;;;;;;;;15.06;100.00;95392.38;5116179;28;1288;-55
2023/09/21 04:21:23;;;;;;;;;;;;;;;14.89;100.00;95382.78;5115633;28;977;-55
2023/09/21 04:23:49;;;;;;;;;;;;;;;14.88;100.00;95376.59;5115767;28;1079;-55
2023/09/21 04:26:15;;;;;;;;;;;;;;;15.30;100.00;95367.06;5115677;27;1917;-55
2023/09/21 04:28:41;;;;;;;;;;;;;;;15.74;100.00;95374.34;5115856;28;991;-55
2023/09/21 04:31:09;;;;;;;;;;;;;;;15.75;100.00;95375.19;5115718;28;1088;-56
2023/09/21 04:33:35;;;;;;;;;;;;;;;15.79;100.00;95381.88;5115571;28;1029;-56
2023/09/21 04:36:01;;;;;;;;;;;;;;;15.79;100.00;95377.31;5115489;28;987;-55
2023/09/21 04:38:27;;;;;;;;;;;;;;;15.87;100.00;95378.22;5115610;28;965;-54
2023/09/21 04:40:53;;;;;;;;;;;;;;;15.95;100.00;95392.47;5115707;28;1055;-54
2023/09/21 04:43:20;;;;;;;;;;;;;;;15.98;100.00;95391.22;5115203;28;1262;-55
2023/09/21 04:45:49;;;;;;;;;;;;;;;15.97;100.00;95403.88;5115330;28;1918;-55
2023/09/21 04:48:15;;;;;;;;;;;;;;;15.94;100.00;95406.94;5114601;28;1055;-54
2023/09/21 04:50:42;;;;;;;;;;;;;;;15.83;100.00;95399.34;5115524;28;980;-54
2023/09/21 04:53:08;;;;;;;;;;;;;;;15.84;100.00;95398.34;5115157;28;1099;-55
2023/09/21 04:55:36;;;;;;;;;;;;;;;15.88;100.00;95394.22;5115236;28;1041;-55
2023/09/21 04:58:02;;;;;;;;;;;;;;;15.99;100.00;95395.59;5118827;27;1243;-55
2023/09/21 05:00:29;;;;;;;;;;;;;;;16.22;100.00;95392.78;5135623;27;1043;-55
2023/09/21 05:02:55;;;;;;;;;;;;;;;16.36;100.00;95393.75;5135418;27;1149;-55
2023/09/21 05:05:24;;;;;;;;;;;;;;;16.38;100.00;95394.38;5135635;27;1983;-55
2023/09/21 05:07:50;;;;;;;;;;;;;;;16.50;100.00;95389.31;5135706;27;1010;-55
2023/09/21 05:10:16;;;;;;;;;;;;;;;16.55;100.00;95384.19;5135476;27;1055;-55
2023/09/21 05:12:42;;;;;;;;;;;;;;;16.69;100.00;95372.47;5135497;27;959;-55
2023/09/21 05:15:11;;;;;;;;;;;;;;;16.58;100.00;95373.84;5135598;27;988;-54
2023/09/21 05:17:37;;;;;;;;;;;;;;;16.53;100.00;95370.88;5135248;27;1011;-55
2023/09/21 05:20:05;;;;;;;;;;;;;;;16.54;100.00;95382.50;5135555;27;972;-55
2023/09/21 05:22:32;;;;;;;;;;;;;;;16.62;100.00;95382.38;5135355;27;1055;-55
2023/09/21 05:25:00;;;;;;;;;;;;;;;16.64;100.00;95383.03;5135392;27;1913;-55
2023/09/21 05:27:29;;;;;;;;;;;;;;;16.73;100.00;95378.31;5134923;27;1048;-55
2023/09/21 05:29:57;;;;;;;;;;;;;;;16.78;100.00;95379.41;5135095;27;953;-55
2023/09/21 05:32:24;;;;;;;;;;;;;;;16.82;100.00;95379.03;5134821;27;968;-55
2023/09/21 05:34:51;;;;;;;;;;;;;;;16.94;100.00;95378.34;5135187;27;977;-55
2023/09/21 05:37:18;;;;;;;;;;;;;;;17.04;100.00;95378.00;5134545;27;1502;-55
2023/09/21 05:39:45;;;;;;;;;;;;;;;17.14;100.00;95378.50;5134874;27;1055;-55
2023/09/21 05:42:12;;;;;;;;;;;;;;;17.31;100.00;95379.03;5134696;27;1103;-55
2023/09/21 05:44:38;;;;;;;;;;;;;;;17.30;100.00;95374.66;5134560;27;1988;-55
2023/09/21 05:47:04;;;;;;;;;;;;;;;17.24;100.00;95375.44;5134952;27;1115;-55
2023/09/21 05:49:32;;;;;;;;;;;;;;;17.34;100.00;95372.41;5134576;27;1068;-54
2023/09/21 05:52:00;;;;;;;;;;;;;;;17.50;100.00;95371.25;5134689;27;1051;-54
2023/09/21 05:54:26;;;;;;;;;;;;;;;17.65;100.00;95376.53;5134578;27;995;-55
2023/09/21 05:56:53;;;;;;;;;;;;;;;17.72;100.00;95380.13;5134863;27;1086;-55
2023/09/21 05:59:19;;;;;;;;;;;;;;;17.82;100.00;95383.28;5133786;27;1161;-55
2023/09/21 06:01:46;;;;;;;;;;;;;;;17.84;100.00;95378.53;5134734;27;987;-55
2023/09/21 06:04:12;;;;;;;;;;;;;;;17.94;100.00;95391.69;5134454;27;1125;-55
2023/09/21 06:06:38;;;;;;;;;;;;;;;17.89;100.00;95403.13;5134404;27;1978;-56
2023/09/21 06:09:07;;;;;;;;;;;;;;;17.94;100.00;95399.81;5134449;27;1873;-55
2023/09/21 06:11:33;;;;;;;;;;;;;;;18.09;100.00;95402.38;5134624;27;1020;-55
2023/09/21 06:13:59;;;;;;;;;;;;;;;18.11;99.54;95403.00;5134658;27;968;-55
2023/09/21 06:16:25;;;;;;;;;;;;;;;18.09;100.00;95400.50;5134502;27;975;-55
2023/09/21 06:18:51;;;;;;;;;;;;;;;18.08;100.00;95400.69;5134689;27;956;-56
2023/09/21 06:21:17;;;;;;;;;;;;;;;18.04;100.00;95400.28;5134361;27;961;-55
2023/09/21 06:23:44;;;;;;;;;;;;;;;18.10;100.00;95401.34;5134616;27;961;-55
2023/09/21 06:26:14;;;;;;;;;;;;;;;18.08;100.00;95404.25;5134152;27;1990;-54
2023/09/21 06:28:44;;;;;;;;;;;;;;;18.04;100.00;95405.69;5134295;27;976;-55
2023/09/21 06:31:13;;;;;;;;;;;;;;;18.06;99.98;95400.91;5134384;27;1031;-55
2023/09/21 06:33:39;;;;;;;;;;;;;;;18.16;99.64;95407.81;5134456;27;1035;-54
2023/09/21 06:36:07;;;;;;;;;;;;;;;18.12;99.64;95399.28;5134493;27;965;-55
2023/09/21 06:38:33;;;;;;;;;;;;;;;18.30;97.80;95399.53;5134069;27;1207;-55
2023/09/21 06:41:01;;;;;;;;;;;;;;;18.34;96.90;95399.97;5134241;27;999;-54
2023/09/21 06:43:30;;;;;;;;;;;;;;;18.25;98.09;95406.59;5133784;27;1099;-55
2023/09/21 06:45:56;;;;;;;;;;;;;;;18.18;96.43;95409.28;5134023;27;1992;-55
2023/09/21 06:48:22;;;;;;;;;;;;;;;18.20;98.08;95403.66;5134235;27;1015;-55
2023/09/21 06:50:48;;;;;;;;;;;;;;;18.39;96.22;95410.19;5134343;27;1024;-54
2023/09/21 06:53:14;;;;;;;;;;;;;;;18.51;94.51;95390.41;5134278;27;1031;-55
2023/09/21 06:55:40;;;;;;;;;;;;;;;18.48;94.64;95401.69;5134050;27;1146;-55
2023/09/21 06:58:08;;;;;;;;;;;;;;;18.44;93.85;95396.84;5129704;27;1208;-55
2023/09/21 07:00:37;;;;;;;;;;;;;;;18.45;94.39;95395.84;5113581;28;2435;-55
2023/09/21 07:03:03;;;;;;;;;;;;;;;18.61;93.63;95403.59;5113357;28;1064;-55
2023/09/21 07:05:29;;;;;;;;;;;;;;;18.59;93.69;95399.41;5113336;28;1991;-54
2023/09/21 07:07:55;;;;;;;;;;;;;;;18.64;93.00;95395.03;5113329;28;1052;-55
2023/09/21 07:10:21;;;;;;;;;;;;;;;18.73;92.31;95401.94;5113611;28;1054;-55
2023/09/21 07:12:47;;;;;;;;;;;;;;;18.95;90.26;95409.06;5117094;28;1051;-55
2023/09/21 07:15:13;;;;;;;;;;;;;;;19.13;90.37;95405.75;5117010;28;1052;-55
2023/09/21 07:17:39;;;;;;;;;;;;;;;19.36;88.55;95399.91;5117110;28;1028;-55
2023/09/21 07:20:06;;;;;;;;;;;;;;;19.41;89.48;95400.97;5117178;28;956;-55
2023/09/21 07:22:32;;;;;;;;;;;;;;;19.47;88.84;95394.69;5117235;28;1027;-55
2023/09/21 07:25:02;;;;;;;;;;;;;;;19.48;89.46;95393.66;5116915;28;1910;-55
2023/09/21 07:27:28;;;;;;;;;;;;;;;19.61;90.18;95394.66;5116762;28;1027;-55
2023/09/21 07:29:57;;;;;;;;;;;;;;;19.66;90.89;95395.69;5117047;28;1025;-55
2023/09/21 07:32:25;;;;;;;;;;;;;;;19.51;92.46;95403.22;5116735;27;1044;-55
2023/09/21 07:34:51;;;;;;;;;;;;;;;19.52;90.76;95404.91;5117186;28;1043;-55
2023/09/21 07:37:17;;;;;;;;;;;;;;;19.70;90.91;95404.25;5116589;28;1036;-55
2023/09/21 07:39:44;;;;;;;;;;;;;;;19.69;90.28;95406.13;5116636;28;956;-55
2023/09/21 07:42:10;;;;;;;;;;;;;;;19.86;90.39;95403.84;5116902;28;1048;-55
2023/09/21 07:44:37;;;;;;;;;;;;;;;20.06;88.62;95397.50;5116469;28;1086;-55
2023/09/21 07:47:04;;;;;;;;;;;;;;;20.25;87.34;95403.91;5115455;28;1909;-55
2023/09/21 07:49:30;;;;;;;;;;;;;;;20.38;85.17;95398.41;5116517;28;1051;-55
2023/09/21 07:51:56;;;;;;;;;;;;;;;20.63;83.36;95397.69;5116500;28;1071;-55
2023/09/21 07:54:22;;;;;;;;;;;;;;;21.06;82.87;95397.81;5116340;28;1010;-55
2023/09/21 07:56:48;;;;;;;;;;;;;;;21.10;84.17;95392.78;5116678;28;1106;-55
2023/09/21 07:59:15;;;;;;;;;;;;;;;21.12;84.02;95400.72;5130056;27;1239;-55
2023/09/21 08:01:41;;;;;;;;;;;;;;;21.55;79.94;95395.34;5135759;27;987;-54
2023/09/21 08:04:07;;;;;;;;;;;;;;;21.70;80.41;95397.69;5137093;27;976;-55
2023/09/21 08:06:33;;;;;;;;;;;;;;;21.94;78.52;95392.44;5136602;27;1914;-55
2023/09/21 08:08:59;;;;;;;;;;;;;;;22.22;76.01;95397.34;5136654;27;1121;-55
2023/09/21 08:11:26;;;;;;;;;;;;;;;22.16;75.59;95393.66;5136773;27;1039;-55
2023/09/21 08:13:52;;;;;;;;;;;;;;;22.03;76.32;95393.81;5136531;27;1060;-55
2023/09/21 08:16:18;;;;;;;;;;;;;;;21.96;77.35;95391.13;5136618;27;995;-55
2023/09/21 08:18:45;;;;;;;;;;;;;;;21.63;79.71;95392.31;5136440;27;1035;-55
2023/09/21 08:21:11;;;;;;;;;;;;;;;21.48;78.71;95394.56;5136599;27;964;-55
2023/09/21 08:23:37;;;;;;;;;;;;;;;21.67;79.92;95400.88;5135713;27;1032;-54
2023/09/21 08:26:03;;;;;;;;;;;;;;;21.68;79.13;95398.97;5136482;27;1918;-54
2023/09/21 08:28:30;;;;;;;;;;;;;;;21.78;78.67;95397.41;5136521;27;1059;-54
2023/09/21 08:30:57;;;;;;;;;;;;;;;21.96;76.58;95398.47;5135008;27;1024;-55
2023/09/21 08:33:23;;;;;;;;;;;;;;;21.93;76.86;95391.59;5136208;27;1063;-55
2023/09/21 08:35:49;;;;;;;;;;;;;;;22.06;76.23;95389.78;5136457;27;980;-54
2023/09/21 08:38:17;;;;;;;;;;;;;;;22.28;75.75;95385.56;5135935;27;1083;-55
2023/09/21 08:40:46;;;;;;;;;;;;;;;22.45;73.59;95384.94;5136321;27;1005;-54
2023/09/21 08:43:19;;;;;;;;;;;;;;;22.60;72.30;95374.47;5135747;27;1210;-54
2023/09/21 08:45:46;;;;;;;;;;;;;;;22.83;71.54;95373.72;5136090;27;1921;-54
2023/09/21 08:48:15;;;;;;;;;;;;;;;23.10;68.86;95371.44;5135896;27;1031;-54
2023/09/21 08:50:42;;;;;;;;;;;;;;;23.10;64.79;95368.69;5135811;27;1040;-54
2023/09/21 08:53:12;;;;;;;;;;;;;;;23.17;68.03;95366.69;5135780;27;937;-54
2023/09/21 08:55:39;;;;;;;;;;;;;;;23.34;67.51;95369.56;5136081;27;976;-54
2023/09/21 08:58:06;;;;;;;;;;;;;;;23.77;67.04;95373.84;5135925;27;1180;-54
2023/09/21 09:00:33;;;;;;;;;;;;;;;24.18;66.84;95365.75;5135576;27;1868;-54
2023/09/21 09:02:59;;;;;;;;;;;;;;;23.92;68.81;95364.34;5135625;27;1032;-53
2023/09/21 09:05:26;;;;;;;;;;;;;;;23.78;68.46;95361.03;5135661;27;1991;-54
2023/09/21 09:07:52;;;;;;;;;;;;;;;23.74;68.87;95362.59;5135780;27;1044;-55
2023/09/21 09:10:18;;;;;;;;;;;;;;;23.76;67.75;95363.16;5135584;27;1039;-55
2023/09/21 09:12:44;;;;;;;;;;;;;;;23.64;67.09;95365.91;5135439;27;1032;-55
2023/09/21 09:15:10;;;;;;;;;;;;;;;23.69;67.83;95363.28;5135426;27;1071;-55
2023/09/21 09:17:36;;;;;;;;;;;;;;;23.75;67.09;95362.34;5135427;27;1008;-55
2023/09/21 09:20:05;;;;;;;;;;;;;;;23.60;68.11;95356.53;5135288;27;977;-54
2023/09/21 09:22:34;;;;;;;;;;;;;;;23.38;67.16;95359.03;5135144;27;1032;-54
2023/09/21 09:25:01;;;;;;;;;;;;;;;23.35;69.62;95351.31;5135375;27;1986;-55
2023/09/21 09:27:27;;;;;;;;;;;;;;;23.57;69.81;95357.84;5133937;27;1043;-54
2023/09/21 09:29:56;;;;;;;;;;;;;;;23.97;67.98;95357.09;5135427;27;1051;-54
2023/09/21 09:32:23;;;;;;;;;;;;;;;24.05;67.10;95355.91;5134070;27;1002;-55
2023/09/21 09:34:49;;;;;;;;;;;;;;;24.42;67.49;95352.03;5135143;27;1315;-54
2023/09/21 09:37:16;;;;;;;;;;;;;;;24.63;64.86;95345.91;5134892;27;1032;-53
2023/09/21 09:39:43;;;;;;;;;;;;;;;24.70;65.47;95346.59;5134962;27;1122;-54
2023/09/21 09:42:09;;;;;;;;;;;;;;;24.93;65.81;95348.34;5135046;27;1048;-54
2023/09/21 09:44:41;;;;;;;;;;;;;;;25.33;63.26;95343.84;5134726;27;1130;-55
2023/09/21 09:47:09;;;;;;;;;;;;;;;25.58;61.70;95343.41;5135107;27;1910;-54
2023/09/21 09:49:38;;;;;;;;;;;;;;;25.64;60.86;95333.38;5135116;27;968;-55
2023/09/21 09:52:06;;;;;;;;;;;;;;;25.30;64.31;95334.22;5134944;27;1040;-54
2023/09/21 09:54:32;;;;;;;;;;;;;;;24.98;65.59;95335.84;5134752;27;973;-54
2023/09/21 09:56:59;;;;;;;;;;;;;;;25.04;66.64;95338.44;5134921;27;1035;-54
2023/09/21 09:59:28;;;;;;;;;;;;;;;24.78;66.22;95334.41;5119262;27;1231;-55
2023/09/21 10:01:54;;;;;;;;;;;;;;;25.27;65.16;95336.63;5113959;28;1020;-55
2023/09/21 10:04:21;;;;;;;;;;;;;;;25.67;64.20;95332.88;5114180;28;1043;-54
2023/09/21 10:06:47;;;;;;;;;;;;;;;26.03;63.33;95336.16;5114195;28;1987;-54
2023/09/21 10:09:14;;;;;;;;;;;;;;;26.21;61.73;95335.00;5114189;28;1007;-54
2023/09/21 10:11:48;;;;;;;;;;;;;;;26.24;60.05;95334.50;5114033;28;992;-54
2023/09/21 10:14:16;;;;;;;;;;;;;;;25.82;61.62;95329.50;5114076;28;1095;-54
2023/09/21 10:16:49;;;;;;;;;;;;;;;25.75;62.32;95335.19;5114053;28;1205;-54
2023/09/21 10:19:16;;;;;;;;;;;;;;;25.36;62.96;95329.66;5113993;28;969;-54
2023/09/21 10:21:43;;;;;;;;;;;;;;;25.18;63.47;95328.00;5113972;28;937;-54
2023/09/21 10:24:12;;;;;;;;;;;;;;;25.11;63.73;95319.94;5113768;28;1052;-54
2023/09/21 10:26:43;;;;;;;;;;;;;;;25.25;64.31;95327.84;5113755;28;1902;-54
2023/09/21 10:29:12;;;;;;;;;;;;;;;25.18;63.84;95328.00;5114000;28;961;-54
2023/09/21 10:31:39;;;;;;;;;;;;;;;25.05;63.31;95318.19;5113908;28;999;-54
2023/09/21 10:34:09;;;;;;;;;;;;;;;24.91;63.87;95317.69;5113645;28;1040;-56
2023/09/21 10:36:38;;;;;;;;;;;;;;;24.83;64.04;95303.59;5113849;28;1009;-55
2023/09/21 10:39:10;;;;;;;;;;;;;;;24.79;63.50;95305.16;5113618;28;1111;-55
2023/09/21 10:41:42;;;;;;;;;;;;;;;24.67;65.64;95303.31;5113869;28;1028;-55
2023/09/21 10:44:09;;;;;;;;;;;;;;;24.55;69.13;95291.63;5113503;28;1088;-55
2023/09/21 10:46:37;;;;;;;;;;;;;;;24.43;71.40;95285.34;5116182;28;1909;-55
2023/09/21 10:49:03;;;;;;;;;;;;;;;24.36;72.89;95280.88;5117862;28;1011;-56
2023/09/21 10:51:29;;;;;;;;;;;;;;;24.36;70.65;95283.59;5117784;28;992;-54
2023/09/21 10:53:59;;;;;;;;;;;;;;;24.77;69.51;95285.44;5117573;28;1044;-54
2023/09/21 10:56:26;;;;;;;;;;;;;;;25.15;68.77;95284.69;5117405;27;1016;-55
2023/09/21 10:58:52;;;;;;;;;;;;;;;25.26;65.12;95278.34;5127926;27;1242;-55
2023/09/21 11:01:19;;;;;;;;;;;;;;;25.41;62.91;95269.53;5138076;27;1027;-55
2023/09/21 11:03:47;;;;;;;;;;;;;;;25.70;62.33;95266.66;5137918;27;1123;-55
2023/09/21 11:06:16;;;;;;;;;;;;;;;25.96;64.44;95273.31;5137741;27;1905;-55
2023/09/21 11:08:42;;;;;;;;;;;;;;;26.16;60.68;95266.41;5137926;27;1120;-54
2023/09/21 11:11:08;;;;;;;;;;;;;;;26.34;59.82;95257.03;5137787;27;1018;-55
2023/09/21 11:13:34;;;;;;;;;;;;;;;26.47;56.02;95256.63;5137972;27;976;-54
2023/09/21 11:16:01;;;;;;;;;;;;;;;26.48;59.52;95241.81;5137904;27;965;-54
2023/09/21 11:18:29;;;;;;;;;;;;;;;26.47;57.78;95231.94;5136442;27;2637;-54
2023/09/21 11:20:55;;;;;;;;;;;;;;;26.56;60.74;95221.31;5137979;27;1079;-55
2023/09/21 11:23:22;;;;;;;;;;;;;;;26.68;60.79;95217.38;5137412;27;1126;-54
2023/09/21 11:25:50;;;;;;;;;;;;;;;26.70;60.14;95217.09;5137377;27;1909;-55
2023/09/21 11:28:19;;;;;;;;;;;;;;;26.68;60.50;95209.13;5137624;27;972;-54
2023/09/21 11:30:45;;;;;;;;;;;;;;;26.46;61.41;95202.88;5136371;27;1014;-54
2023/09/21 11:33:12;;;;;;;;;;;;;;;26.32;61.41;95201.66;5137409;27;991;-54
2023/09/21 11:35:38;;;;;;;;;;;;;;;26.33;61.56;95214.25;5137628;27;975;-54
2023/09/21 11:38:04;;;;;;;;;;;;;;;26.20;61.84;95208.13;5137272;27;992;-54
2023/09/21 11:40:31;;;;;;;;;;;;;;;26.09;61.86;95195.38;5137107;27;1047;-54
2023/09/21 11:42:59;;;;;;;;;;;;;;;26.05;62.56;95195.06;5137219;27;1179;-55
2023/09/21 11:45:26;;;;;;;;;;;;;;;26.04;63.20;95189.84;5136987;27;1906;-54
2023/09/21 11:47:58;;;;;;;;;;;;;;;25.94;62.78;95187.00;5135611;27;2529;-54
2023/09/21 11:50:26;;;;;;;;;;;;;;;26.07;60.84;95184.69;5136998;27;1039;-54
2023/09/21 11:52:56;;;;;;;;;;;;;;;26.36;60.91;95184.41;5137018;27;968;-54
2023/09/21 11:55:26;;;;;;;;;;;;;;;26.61;59.74;95177.53;5136908;27;1055;-54
2023/09/21 11:57:54;;;;;;;;;;;;;;;26.67;61.04;95176.50;5135957;27;1208;-54
2023/09/21 12:00:27;;;;;;;;;;;;;;;26.72;59.22;95179.28;5136770;27;1054;-54
2023/09/21 12:02:54;;;;;;;;;;;;;;;26.65;58.54;95176.78;5137161;27;952;-56
2023/09/21 12:05:20;;;;;;;;;;;;;;;26.59;57.05;95169.56;5136588;27;1905;-56
2023/09/21 12:07:46;;;;;;;;;;;;;;;26.68;56.75;95170.75;5137055;27;964;-55
2023/09/21 12:10:14;;;;;;;;;;;;;;;26.80;56.15;95175.22;5136575;27;1114;-55
2023/09/21 12:12:42;;;;;;;;;;;;;;;26.99;55.91;95157.25;5136791;27;1047;-54
2023/09/21 12:15:11;;;;;;;;;;;;;;;26.77;54.08;95162.03;5136561;27;1106;-55
2023/09/21 12:17:37;;;;;;;;;;;;;;;26.48;56.80;95156.84;5136564;27;1128;-55
2023/09/21 12:20:11;;;;;;;;;;;;;;;26.38;57.47;95154.84;5136672;27;976;-55
2023/09/21 12:22:38;;;;;;;;;;;;;;;26.32;56.98;95155.06;5136477;27;1123;-55
2023/09/21 12:25:06;;;;;;;;;;;;;;;26.38;57.82;95145.78;5136354;27;1906;-55
2023/09/21 12:27:32;;;;;;;;;;;;;;;26.45;57.69;95149.97;5136473;27;1048;-55
2023/09/21 12:29:58;;;;;;;;;;;;;;;26.63;57.21;95146.00;5136402;27;968;-54
2023/09/21 12:32:24;;;;;;;;;;;;;;;26.70;56.50;95136.75;5136192;27;1063;-55
2023/09/21 12:34:52;;;;;;;;;;;;;;;26.64;58.10;95130.41;5136505;27;995;-55
2023/09/21 12:37:18;;;;;;;;;;;;;;;26.52;57.67;95133.28;5132348;27;2464;-54
2023/09/21 12:39:44;;;;;;;;;;;;;;;26.53;57.40;95125.91;5115574;28;1091;-54
2023/09/21 12:42:12;;;;;;;;;;;;;;;26.47;56.99;95131.34;5115449;28;1036;-55
2023/09/21 12:44:38;;;;;;;;;;;;;;;26.30;60.00;95136.94;5115281;28;1044;-56
2023/09/21 12:47:04;;;;;;;;;;;;;;;26.08;61.08;95120.56;5115589;28;1906;-54
2023/09/21 12:49:30;;;;;;;;;;;;;;;25.94;62.21;95124.84;5115238;28;1032;-54
2023/09/21 12:51:56;;;;;;;;;;;;;;;25.92;61.88;95117.97;5115587;28;979;-54
2023/09/21 12:54:22;;;;;;;;;;;;;;;25.88;60.38;95118.44;5115452;28;1064;-55
2023/09/21 12:56:50;;;;;;;;;;;;;;;25.91;61.34;95108.88;5121069;27;2489;-54